sensor_id;sensor_type;location;lat;lon;timestamp;temperature;humidity
12926;DHT22;6529;50.566;9.774;2023-03-01T00:01:06;-1.40;99.90
12926;DHT22;6529;50.566;9.774;2023-03-01T00:03:33;-1.30;99.90
12926;DHT22;6529;50.566;9.774;2023-03-01T00:05:59;-1.30;99.90
12926;DHT22;6529;50.566;9.774;2023-03-01T00:08:25;-1.20;99.90
12926;DHT22;6529;50.566;9.774;2023-03-01T00:11:07;-1.30;99.90
12926;DHT22;6529;50.566;9.774;2023-03-01T00:13:34;-1.30;99.90
12926;DHT22;6529;50.566;9.774;2023-03-01T00:16:06;-1.40;99.90
12926;DHT22;6529;50.566;9.774;2023-03-01T00:18:32;-1.30;99.90
12926;DHT22;6529;50.566;9.774;2023-03-01T00:20:58;-1.20;99.90
12926;DHT22;6529;50.566;9.774;2023-03-01T00:23:24;-1.20;99.90
12926;DHT22;6529;50.566;9.774;2023-03-01T00:25:51;-1.20;99.90
12926;DHT22;6529;50.566;9.774;2023-03-01T00:28:17;-1.30;99.90
12926;DHT22;6529;50.566;9.774;2023-03-01T00:30:43;-1.40;99.90
12926;DHT22;6529;50.566;9.774;2023-03-01T00:33:08;-1.50;99.90
12926;DHT22;6529;50.566;9.774;2023-03-01T00:35:34;-1.50;99.90
12926;DHT22;6529;50.566;9.774;2023-03-01T00:38:00;-1.50;99.90
12926;DHT22;6529;50.566;9.774;2023-03-01T00:40:28;-1.60;99.90
12926;DHT22;6529;50.566;9.774;2023-03-01T00:42:54;-1.60;99.90
12926;DHT22;6529;50.566;9.774;2023-03-01T00:45:20;-1.50;99.90
12926;DHT22;6529;50.566;9.774;2023-03-01T00:47:46;-1.50;99.90
12926;DHT22;6529;50.566;9.774;2023-03-01T00:50:12;-1.50;99.90
12926;DHT22;6529;50.566;9.774;2023-03-01T00:52:38;-1.50;99.90
12926;DHT22;6529;50.566;9.774;2023-03-01T00:55:04;-1.50;99.90
12926;DHT22;6529;50.566;9.774;2023-03-01T00:57:30;-1.40;99.90
12926;DHT22;6529;50.566;9.774;2023-03-01T00:59:56;-1.40;99.90
12926;DHT22;6529;50.566;9.774;2023-03-01T01:02:21;-1.50;99.90
12926;DHT22;6529;50.566;9.774;2023-03-01T01:04:47;-1.50;99.90
12926;DHT22;6529;50.566;9.774;2023-03-01T01:07:13;-1.50;99.90
12926;DHT22;6529;50.566;9.774;2023-03-01T01:09:39;-1.50;99.90
12926;DHT22;6529;50.566;9.774;2023-03-01T01:12:05;-1.50;99.90
12926;DHT22;6529;50.566;9.774;2023-03-01T01:14:31;-1.40;99.90
12926;DHT22;6529;50.566;9.774;2023-03-01T01:16:57;-1.40;99.90
12926;DHT22;6529;50.566;9.774;2023-03-01T01:19:24;-1.40;99.90
12926;DHT22;6529;50.566;9.774;2023-03-01T01:21:49;-1.40;99.90
12926;DHT22;6529;50.566;9.774;2023-03-01T01:24:16;-1.40;99.90
12926;DHT22;6529;50.566;9.774;2023-03-01T01:26:41;-1.30;99.90
12926;DHT22;6529;50.566;9.774;2023-03-01T01:29:07;-1.30;99.90
12926;DHT22;6529;50.566;9.774;2023-03-01T01:31:35;-1.30;99.90
12926;DHT22;6529;50.566;9.774;2023-03-01T01:34:03;-1.40;99.90
12926;DHT22;6529;50.566;9.774;2023-03-01T01:36:30;-1.40;99.90
12926;DHT22;6529;50.566;9.774;2023-03-01T01:38:56;-1.40;99.90
12926;DHT22;6529;50.566;9.774;2023-03-01T01:41:22;-1.50;99.90
12926;DHT22;6529;50.566;9.774;2023-03-01T01:46:37;-1.40;99.90
12926;DHT22;6529;50.566;9.774;2023-03-01T01:51:42;-1.30;99.90
12926;DHT22;6529;50.566;9.774;2023-03-01T01:54:12;-1.30;99.90
12926;DHT22;6529;50.566;9.774;2023-03-01T01:56:42;-1.30;99.90
12926;DHT22;6529;50.566;9.774;2023-03-01T01:59:09;-1.40;99.90
12926;DHT22;6529;50.566;9.774;2023-03-01T02:01:36;-1.40;99.90
12926;DHT22;6529;50.566;9.774;2023-03-01T02:04:01;-1.30;99.90
12926;DHT22;6529;50.566;9.774;2023-03-01T02:06:39;-1.30;99.90
12926;DHT22;6529;50.566;9.774;2023-03-01T02:09:12;-1.30;99.90
12926;DHT22;6529;50.566;9.774;2023-03-01T02:11:38;-1.40;99.90
12926;DHT22;6529;50.566;9.774;2023-03-01T02:14:05;-1.30;99.90
12926;DHT22;6529;50.566;9.774;2023-03-01T02:16:31;-1.30;99.90
12926;DHT22;6529;50.566;9.774;2023-03-01T02:18:58;-1.30;99.90
12926;DHT22;6529;50.566;9.774;2023-03-01T02:23:55;-1.40;99.90
12926;DHT22;6529;50.566;9.774;2023-03-01T02:26:36;-1.40;99.90
12926;DHT22;6529;50.566;9.774;2023-03-01T02:29:05;-1.50;99.90
12926;DHT22;6529;50.566;9.774;2023-03-01T02:31:31;-1.50;99.90
12926;DHT22;6529;50.566;9.774;2023-03-01T02:34:13;-1.50;99.90
12926;DHT22;6529;50.566;9.774;2023-03-01T02:36:49;-1.40;99.90
12926;DHT22;6529;50.566;9.774;2023-03-01T02:39:25;-1.50;99.90
12926;DHT22;6529;50.566;9.774;2023-03-01T02:41:53;-1.50;99.90
12926;DHT22;6529;50.566;9.774;2023-03-01T02:44:20;-1.50;99.90
12926;DHT22;6529;50.566;9.774;2023-03-01T02:46:50;-1.50;99.90
12926;DHT22;6529;50.566;9.774;2023-03-01T02:49:26;-1.50;99.90
12926;DHT22;6529;50.566;9.774;2023-03-01T02:54:36;-1.50;99.90
12926;DHT22;6529;50.566;9.774;2023-03-01T02:57:04;-1.50;99.90
12926;DHT22;6529;50.566;9.774;2023-03-01T02:59:32;-1.50;99.90
12926;DHT22;6529;50.566;9.774;2023-03-01T03:02:05;-1.50;99.90
12926;DHT22;6529;50.566;9.774;2023-03-01T03:04:30;-1.40;99.90
12926;DHT22;6529;50.566;9.774;2023-03-01T03:06:56;-1.50;99.90
12926;DHT22;6529;50.566;9.774;2023-03-01T03:09:21;-1.50;99.90
12926;DHT22;6529;50.566;9.774;2023-03-01T03:11:47;-1.60;99.90
12926;DHT22;6529;50.566;9.774;2023-03-01T03:14:14;-1.60;99.90
12926;DHT22;6529;50.566;9.774;2023-03-01T03:16:59;-1.70;99.90
12926;DHT22;6529;50.566;9.774;2023-03-01T03:19:24;-1.90;99.90
12926;DHT22;6529;50.566;9.774;2023-03-01T03:21:50;-1.90;99.90
12926;DHT22;6529;50.566;9.774;2023-03-01T03:24:15;-2.00;99.90
12926;DHT22;6529;50.566;9.774;2023-03-01T03:26:41;-2.00;99.90
12926;DHT22;6529;50.566;9.774;2023-03-01T03:29:07;-2.00;99.90
12926;DHT22;6529;50.566;9.774;2023-03-01T03:31:33;-1.90;99.90
12926;DHT22;6529;50.566;9.774;2023-03-01T03:33:59;-1.80;99.90
12926;DHT22;6529;50.566;9.774;2023-03-01T03:36:24;-1.90;99.90
12926;DHT22;6529;50.566;9.774;2023-03-01T03:38:50;-1.90;99.90
12926;DHT22;6529;50.566;9.774;2023-03-01T03:41:17;-1.80;99.90
12926;DHT22;6529;50.566;9.774;2023-03-01T03:43:43;-1.70;99.90
12926;DHT22;6529;50.566;9.774;2023-03-01T03:46:10;-1.60;99.90
12926;DHT22;6529;50.566;9.774;2023-03-01T03:48:38;-1.50;99.90
12926;DHT22;6529;50.566;9.774;2023-03-01T03:51:04;-1.50;99.90
12926;DHT22;6529;50.566;9.774;2023-03-01T03:53:33;-1.40;99.90
12926;DHT22;6529;50.566;9.774;2023-03-01T03:55:59;-1.40;99.90
12926;DHT22;6529;50.566;9.774;2023-03-01T03:58:25;-1.30;99.90
12926;DHT22;6529;50.566;9.774;2023-03-01T04:00:57;-1.30;99.90
12926;DHT22;6529;50.566;9.774;2023-03-01T04:03:25;-1.30;99.90
12926;DHT22;6529;50.566;9.774;2023-03-01T04:05:51;-1.30;99.90
12926;DHT22;6529;50.566;9.774;2023-03-01T04:08:22;-1.30;99.90
12926;DHT22;6529;50.566;9.774;2023-03-01T04:10:49;-1.30;99.90
12926;DHT22;6529;50.566;9.774;2023-03-01T04:13:18;-1.30;99.90
12926;DHT22;6529;50.566;9.774;2023-03-01T04:15:46;-1.30;99.90
12926;DHT22;6529;50.566;9.774;2023-03-01T04:18:13;-1.20;99.90
12926;DHT22;6529;50.566;9.774;2023-03-01T04:20:39;-1.20;99.90
12926;DHT22;6529;50.566;9.774;2023-03-01T04:23:07;-1.20;99.90
12926;DHT22;6529;50.566;9.774;2023-03-01T04:25:41;-1.10;99.90
12926;DHT22;6529;50.566;9.774;2023-03-01T04:28:08;-1.20;99.90
12926;DHT22;6529;50.566;9.774;2023-03-01T04:30:35;-1.10;99.90
12926;DHT22;6529;50.566;9.774;2023-03-01T04:33:09;-1.20;99.90
12926;DHT22;6529;50.566;9.774;2023-03-01T04:35:36;-1.20;99.90
12926;DHT22;6529;50.566;9.774;2023-03-01T04:38:03;-1.30;99.90
12926;DHT22;6529;50.566;9.774;2023-03-01T04:40:29;-1.40;99.90
12926;DHT22;6529;50.566;9.774;2023-03-01T04:42:54;-1.40;99.90
12926;DHT22;6529;50.566;9.774;2023-03-01T04:45:20;-1.40;99.90
12926;DHT22;6529;50.566;9.774;2023-03-01T04:47:46;-1.40;99.90
12926;DHT22;6529;50.566;9.774;2023-03-01T04:50:14;-1.40;99.90
12926;DHT22;6529;50.566;9.774;2023-03-01T04:52:40;-1.40;99.90
12926;DHT22;6529;50.566;9.774;2023-03-01T04:55:06;-1.40;99.90
12926;DHT22;6529;50.566;9.774;2023-03-01T04:57:32;-1.40;99.90
12926;DHT22;6529;50.566;9.774;2023-03-01T04:59:58;-1.40;99.90
12926;DHT22;6529;50.566;9.774;2023-03-01T05:02:24;-1.40;99.90
12926;DHT22;6529;50.566;9.774;2023-03-01T05:04:49;-1.40;99.90
12926;DHT22;6529;50.566;9.774;2023-03-01T05:07:15;-1.40;99.90
12926;DHT22;6529;50.566;9.774;2023-03-01T05:09:45;-1.50;99.90
12926;DHT22;6529;50.566;9.774;2023-03-01T05:12:11;-1.50;99.90
12926;DHT22;6529;50.566;9.774;2023-03-01T05:14:37;-1.50;99.90
12926;DHT22;6529;50.566;9.774;2023-03-01T05:17:04;-1.60;99.90
12926;DHT22;6529;50.566;9.774;2023-03-01T05:19:30;-1.50;99.90
12926;DHT22;6529;50.566;9.774;2023-03-01T05:21:56;-1.50;99.90
12926;DHT22;6529;50.566;9.774;2023-03-01T05:24:33;-1.50;99.90
12926;DHT22;6529;50.566;9.774;2023-03-01T05:26:59;-1.50;99.90
12926;DHT22;6529;50.566;9.774;2023-03-01T05:29:26;-1.50;99.90
12926;DHT22;6529;50.566;9.774;2023-03-01T05:31:53;-1.50;99.90
12926;DHT22;6529;50.566;9.774;2023-03-01T05:34:26;-1.50;99.90
12926;DHT22;6529;50.566;9.774;2023-03-01T05:36:53;-1.50;99.90
12926;DHT22;6529;50.566;9.774;2023-03-01T05:39:24;-1.60;99.90
12926;DHT22;6529;50.566;9.774;2023-03-01T05:41:58;-1.50;99.90
12926;DHT22;6529;50.566;9.774;2023-03-01T05:44:24;-1.50;99.90
12926;DHT22;6529;50.566;9.774;2023-03-01T05:46:51;-1.50;99.90
12926;DHT22;6529;50.566;9.774;2023-03-01T05:49:17;-1.70;99.90
12926;DHT22;6529;50.566;9.774;2023-03-01T05:51:47;-1.80;99.90
12926;DHT22;6529;50.566;9.774;2023-03-01T05:54:14;-1.80;99.90
12926;DHT22;6529;50.566;9.774;2023-03-01T05:56:40;-1.70;99.90
12926;DHT22;6529;50.566;9.774;2023-03-01T05:59:06;-1.50;99.90
12926;DHT22;6529;50.566;9.774;2023-03-01T06:01:32;-1.50;99.90
12926;DHT22;6529;50.566;9.774;2023-03-01T06:03:58;-1.70;99.90
12926;DHT22;6529;50.566;9.774;2023-03-01T06:06:24;-1.60;99.90
12926;DHT22;6529;50.566;9.774;2023-03-01T06:08:51;-1.60;99.90
12926;DHT22;6529;50.566;9.774;2023-03-01T06:11:16;-1.40;99.90
12926;DHT22;6529;50.566;9.774;2023-03-01T06:13:43;-1.50;99.90
12926;DHT22;6529;50.566;9.774;2023-03-01T06:16:09;-1.70;99.90
12926;DHT22;6529;50.566;9.774;2023-03-01T06:18:36;-1.70;99.90
12926;DHT22;6529;50.566;9.774;2023-03-01T06:21:02;-1.60;99.90
12926;DHT22;6529;50.566;9.774;2023-03-01T06:23:28;-1.70;99.90
12926;DHT22;6529;50.566;9.774;2023-03-01T06:25:53;-1.70;99.90
12926;DHT22;6529;50.566;9.774;2023-03-01T06:28:19;-1.70;99.90
12926;DHT22;6529;50.566;9.774;2023-03-01T06:30:45;-1.80;99.90
12926;DHT22;6529;50.566;9.774;2023-03-01T06:33:11;-1.80;99.90
12926;DHT22;6529;50.566;9.774;2023-03-01T06:35:37;-1.80;99.90
12926;DHT22;6529;50.566;9.774;2023-03-01T06:38:03;-1.80;99.90
12926;DHT22;6529;50.566;9.774;2023-03-01T06:40:29;-1.70;99.90
12926;DHT22;6529;50.566;9.774;2023-03-01T06:42:56;-1.80;99.90
12926;DHT22;6529;50.566;9.774;2023-03-01T06:45:22;-1.80;99.90
12926;DHT22;6529;50.566;9.774;2023-03-01T06:47:48;-1.80;99.90
12926;DHT22;6529;50.566;9.774;2023-03-01T06:50:15;-1.80;99.90
12926;DHT22;6529;50.566;9.774;2023-03-01T06:52:41;-1.80;99.90
12926;DHT22;6529;50.566;9.774;2023-03-01T06:55:07;-1.80;99.90
12926;DHT22;6529;50.566;9.774;2023-03-01T06:57:32;-1.80;99.90
12926;DHT22;6529;50.566;9.774;2023-03-01T06:59:58;-1.70;99.90
12926;DHT22;6529;50.566;9.774;2023-03-01T07:02:23;-1.70;99.90
12926;DHT22;6529;50.566;9.774;2023-03-01T07:04:52;-1.70;99.90
12926;DHT22;6529;50.566;9.774;2023-03-01T07:07:18;-1.70;99.90
12926;DHT22;6529;50.566;9.774;2023-03-01T07:09:45;-1.60;99.90
12926;DHT22;6529;50.566;9.774;2023-03-01T07:12:11;-1.50;99.90
12926;DHT22;6529;50.566;9.774;2023-03-01T07:14:36;-1.40;99.90
12926;DHT22;6529;50.566;9.774;2023-03-01T07:17:02;-1.40;99.90
12926;DHT22;6529;50.566;9.774;2023-03-01T07:19:27;-1.50;99.90
12926;DHT22;6529;50.566;9.774;2023-03-01T07:21:53;-1.40;99.90
12926;DHT22;6529;50.566;9.774;2023-03-01T07:24:20;-1.40;99.90
12926;DHT22;6529;50.566;9.774;2023-03-01T07:26:50;-1.40;99.90
12926;DHT22;6529;50.566;9.774;2023-03-01T07:29:17;-1.40;99.90
12926;DHT22;6529;50.566;9.774;2023-03-01T07:31:43;-1.40;99.90
12926;DHT22;6529;50.566;9.774;2023-03-01T07:34:09;-1.40;99.90
12926;DHT22;6529;50.566;9.774;2023-03-01T07:36:36;-1.40;99.90
12926;DHT22;6529;50.566;9.774;2023-03-01T07:39:02;-1.40;99.90
12926;DHT22;6529;50.566;9.774;2023-03-01T07:41:28;-1.40;99.90
12926;DHT22;6529;50.566;9.774;2023-03-01T07:43:54;-1.30;99.90
12926;DHT22;6529;50.566;9.774;2023-03-01T07:46:20;-1.30;99.90
12926;DHT22;6529;50.566;9.774;2023-03-01T07:48:46;-1.20;99.90
12926;DHT22;6529;50.566;9.774;2023-03-01T07:51:12;-1.20;99.90
12926;DHT22;6529;50.566;9.774;2023-03-01T07:53:38;-1.10;99.90
12926;DHT22;6529;50.566;9.774;2023-03-01T07:56:11;-1.00;99.90
12926;DHT22;6529;50.566;9.774;2023-03-01T07:58:39;-1.00;99.90
12926;DHT22;6529;50.566;9.774;2023-03-01T08:01:07;-0.90;99.90
12926;DHT22;6529;50.566;9.774;2023-03-01T08:03:33;-0.80;99.90
12926;DHT22;6529;50.566;9.774;2023-03-01T08:06:00;-0.70;99.90
12926;DHT22;6529;50.566;9.774;2023-03-01T08:08:26;-0.70;99.90
12926;DHT22;6529;50.566;9.774;2023-03-01T08:10:52;-0.60;99.90
12926;DHT22;6529;50.566;9.774;2023-03-01T08:13:17;-0.50;99.90
12926;DHT22;6529;50.566;9.774;2023-03-01T08:15:48;-0.40;99.90
12926;DHT22;6529;50.566;9.774;2023-03-01T08:18:14;-0.30;99.90
12926;DHT22;6529;50.566;9.774;2023-03-01T08:20:40;-0.20;99.90
12926;DHT22;6529;50.566;9.774;2023-03-01T08:23:05;-0.10;99.90
12926;DHT22;6529;50.566;9.774;2023-03-01T08:25:31;0.10;99.90
12926;DHT22;6529;50.566;9.774;2023-03-01T08:27:57;0.20;99.90
12926;DHT22;6529;50.566;9.774;2023-03-01T08:30:22;0.30;99.90
12926;DHT22;6529;50.566;9.774;2023-03-01T08:32:49;0.30;99.90
12926;DHT22;6529;50.566;9.774;2023-03-01T08:35:15;0.50;99.90
12926;DHT22;6529;50.566;9.774;2023-03-01T08:37:40;0.60;99.90
12926;DHT22;6529;50.566;9.774;2023-03-01T08:40:06;0.80;99.90
12926;DHT22;6529;50.566;9.774;2023-03-01T08:42:33;0.90;99.90
12926;DHT22;6529;50.566;9.774;2023-03-01T08:47:33;1.20;99.90
12926;DHT22;6529;50.566;9.774;2023-03-01T08:50:00;1.30;99.90
12926;DHT22;6529;50.566;9.774;2023-03-01T08:52:26;1.40;99.90
12926;DHT22;6529;50.566;9.774;2023-03-01T08:54:52;1.50;99.90
12926;DHT22;6529;50.566;9.774;2023-03-01T08:57:17;1.60;99.90
12926;DHT22;6529;50.566;9.774;2023-03-01T08:59:43;1.70;99.90
12926;DHT22;6529;50.566;9.774;2023-03-01T09:02:14;1.80;99.90
12926;DHT22;6529;50.566;9.774;2023-03-01T09:04:40;1.90;99.90
12926;DHT22;6529;50.566;9.774;2023-03-01T09:07:06;2.00;99.90
12926;DHT22;6529;50.566;9.774;2023-03-01T09:09:32;2.10;99.90
12926;DHT22;6529;50.566;9.774;2023-03-01T09:11:57;2.40;99.90
12926;DHT22;6529;50.566;9.774;2023-03-01T09:14:23;2.40;99.90
12926;DHT22;6529;50.566;9.774;2023-03-01T09:16:49;2.60;99.90
12926;DHT22;6529;50.566;9.774;2023-03-01T09:19:15;2.70;99.90
12926;DHT22;6529;50.566;9.774;2023-03-01T09:21:41;2.80;99.90
12926;DHT22;6529;50.566;9.774;2023-03-01T09:24:20;2.70;99.90
12926;DHT22;6529;50.566;9.774;2023-03-01T09:26:46;2.80;99.90
12926;DHT22;6529;50.566;9.774;2023-03-01T09:29:12;2.90;99.90
12926;DHT22;6529;50.566;9.774;2023-03-01T09:31:38;3.00;99.90
12926;DHT22;6529;50.566;9.774;2023-03-01T09:34:04;3.20;99.90
12926;DHT22;6529;50.566;9.774;2023-03-01T09:36:30;3.30;99.90
12926;DHT22;6529;50.566;9.774;2023-03-01T09:38:56;3.40;99.50
12926;DHT22;6529;50.566;9.774;2023-03-01T09:46:56;3.50;95.60
12926;DHT22;6529;50.566;9.774;2023-03-01T09:49:25;3.60;97.40
12926;DHT22;6529;50.566;9.774;2023-03-01T09:54:21;3.90;99.30
12926;DHT22;6529;50.566;9.774;2023-03-01T09:57:07;4.00;97.30
12926;DHT22;6529;50.566;9.774;2023-03-01T10:00:01;4.10;99.40
12926;DHT22;6529;50.566;9.774;2023-03-01T10:02:43;4.40;98.00
12926;DHT22;6529;50.566;9.774;2023-03-01T10:10:43;4.50;96.00
12926;DHT22;6529;50.566;9.774;2023-03-01T10:13:45;4.70;95.50
12926;DHT22;6529;50.566;9.774;2023-03-01T10:18:40;4.90;91.80
12926;DHT22;6529;50.566;9.774;2023-03-01T10:21:18;5.00;92.20
12926;DHT22;6529;50.566;9.774;2023-03-01T10:23:45;5.20;89.30
12926;DHT22;6529;50.566;9.774;2023-03-01T10:31:24;5.50;86.90
12926;DHT22;6529;50.566;9.774;2023-03-01T10:33:54;5.70;84.10
12926;DHT22;6529;50.566;9.774;2023-03-01T10:36:23;5.50;87.50
12926;DHT22;6529;50.566;9.774;2023-03-01T10:38:54;5.70;89.40
12926;DHT22;6529;50.566;9.774;2023-03-01T10:41:21;6.00;87.20
12926;DHT22;6529;50.566;9.774;2023-03-01T10:43:58;6.20;87.10
12926;DHT22;6529;50.566;9.774;2023-03-01T10:46:36;6.30;77.70
12926;DHT22;6529;50.566;9.774;2023-03-01T10:49:22;6.20;82.20
12926;DHT22;6529;50.566;9.774;2023-03-01T10:51:50;6.10;79.90
12926;DHT22;6529;50.566;9.774;2023-03-01T10:54:28;6.00;81.00
12926;DHT22;6529;50.566;9.774;2023-03-01T10:56:57;6.20;80.90
12926;DHT22;6529;50.566;9.774;2023-03-01T10:59:31;6.50;83.20
12926;DHT22;6529;50.566;9.774;2023-03-01T11:04:35;6.50;74.50
12926;DHT22;6529;50.566;9.774;2023-03-01T11:07:01;6.40;80.10
12926;DHT22;6529;50.566;9.774;2023-03-01T11:09:31;6.60;74.20
12926;DHT22;6529;50.566;9.774;2023-03-01T11:12:04;6.80;74.00
12926;DHT22;6529;50.566;9.774;2023-03-01T11:14:37;7.10;75.30
12926;DHT22;6529;50.566;9.774;2023-03-01T11:17:12;7.30;72.60
12926;DHT22;6529;50.566;9.774;2023-03-01T11:19:39;7.30;74.30
12926;DHT22;6529;50.566;9.774;2023-03-01T11:22:12;7.50;64.70
12926;DHT22;6529;50.566;9.774;2023-03-01T11:24:48;7.50;70.90
12926;DHT22;6529;50.566;9.774;2023-03-01T11:27:32;7.50;62.60
12926;DHT22;6529;50.566;9.774;2023-03-01T11:30:30;7.60;61.00
12926;DHT22;6529;50.566;9.774;2023-03-01T11:33:13;7.70;56.80
12926;DHT22;6529;50.566;9.774;2023-03-01T11:35:54;7.70;58.40
12926;DHT22;6529;50.566;9.774;2023-03-01T11:38:23;7.80;56.30
12926;DHT22;6529;50.566;9.774;2023-03-01T11:41:06;8.10;53.90
12926;DHT22;6529;50.566;9.774;2023-03-01T12:02:56;8.30;54.50
12926;DHT22;6529;50.566;9.774;2023-03-01T12:05:59;8.10;54.00
12926;DHT22;6529;50.566;9.774;2023-03-01T12:41:46;9.10;37.60
12926;DHT22;6529;50.566;9.774;2023-03-01T12:49:45;8.90;38.90
12926;DHT22;6529;50.566;9.774;2023-03-01T12:52:20;9.40;39.50
12926;DHT22;6529;50.566;9.774;2023-03-01T12:54:50;9.50;33.20
12926;DHT22;6529;50.566;9.774;2023-03-01T12:57:40;9.70;32.90
12926;DHT22;6529;50.566;9.774;2023-03-01T13:10:45;9.40;51.90
12926;DHT22;6529;50.566;9.774;2023-03-01T13:13:25;9.20;39.30
12926;DHT22;6529;50.566;9.774;2023-03-01T13:15:51;9.00;39.70
12926;DHT22;6529;50.566;9.774;2023-03-01T13:20:50;8.80;46.90
12926;DHT22;6529;50.566;9.774;2023-03-01T13:31:08;8.60;38.50
12926;DHT22;6529;50.566;9.774;2023-03-01T13:33:41;8.50;43.20
12926;DHT22;6529;50.566;9.774;2023-03-01T13:36:08;8.80;41.90
12926;DHT22;6529;50.566;9.774;2023-03-01T13:38:48;8.60;42.80
12926;DHT22;6529;50.566;9.774;2023-03-01T13:47:37;8.70;43.40
12926;DHT22;6529;50.566;9.774;2023-03-01T13:52:40;8.40;50.10
12926;DHT22;6529;50.566;9.774;2023-03-01T13:57:44;8.90;43.70
12926;DHT22;6529;50.566;9.774;2023-03-01T14:00:36;8.70;44.60
12926;DHT22;6529;50.566;9.774;2023-03-01T14:03:13;8.80;46.00
12926;DHT22;6529;50.566;9.774;2023-03-01T14:05:40;8.70;45.60
12926;DHT22;6529;50.566;9.774;2023-03-01T14:08:19;9.30;51.90
12926;DHT22;6529;50.566;9.774;2023-03-01T14:16:35;9.60;37.40
12926;DHT22;6529;50.566;9.774;2023-03-01T14:19:26;9.30;41.90
12926;DHT22;6529;50.566;9.774;2023-03-01T14:22:24;9.30;42.30
12926;DHT22;6529;50.566;9.774;2023-03-01T14:25:05;9.30;38.70
12926;DHT22;6529;50.566;9.774;2023-03-01T14:27:37;8.90;39.30
12926;DHT22;6529;50.566;9.774;2023-03-01T14:32:38;8.60;39.80
12926;DHT22;6529;50.566;9.774;2023-03-01T14:35:20;8.10;44.10
12926;DHT22;6529;50.566;9.774;2023-03-01T14:37:45;7.70;44.60
12926;DHT22;6529;50.566;9.774;2023-03-01T14:42:57;7.40;50.30
12926;DHT22;6529;50.566;9.774;2023-03-01T14:45:25;7.60;50.30
12926;DHT22;6529;50.566;9.774;2023-03-01T14:47:51;7.30;52.70
12926;DHT22;6529;50.566;9.774;2023-03-01T14:52:51;7.50;53.80
12926;DHT22;6529;50.566;9.774;2023-03-01T14:55:24;7.30;54.60
12926;DHT22;6529;50.566;9.774;2023-03-01T14:57:52;7.40;56.40
12926;DHT22;6529;50.566;9.774;2023-03-01T15:00:29;7.60;53.30
12926;DHT22;6529;50.566;9.774;2023-03-01T15:02:58;7.20;52.90
12926;DHT22;6529;50.566;9.774;2023-03-01T15:05:31;7.30;54.80
12926;DHT22;6529;50.566;9.774;2023-03-01T15:07:59;7.10;53.00
12926;DHT22;6529;50.566;9.774;2023-03-01T15:10:32;6.90;55.80
12926;DHT22;6529;50.566;9.774;2023-03-01T15:13:22;6.90;55.30
12926;DHT22;6529;50.566;9.774;2023-03-01T15:15:49;7.10;56.10
12926;DHT22;6529;50.566;9.774;2023-03-01T15:18:21;7.10;56.00
12926;DHT22;6529;50.566;9.774;2023-03-01T15:20:49;7.10;52.90
12926;DHT22;6529;50.566;9.774;2023-03-01T15:23:24;7.10;56.70
12926;DHT22;6529;50.566;9.774;2023-03-01T15:25:51;7.10;55.80
12926;DHT22;6529;50.566;9.774;2023-03-01T15:28:37;7.00;54.20
12926;DHT22;6529;50.566;9.774;2023-03-01T15:31:24;6.80;56.50
12926;DHT22;6529;50.566;9.774;2023-03-01T15:33:50;6.70;55.70
12926;DHT22;6529;50.566;9.774;2023-03-01T15:36:45;6.60;59.10
12926;DHT22;6529;50.566;9.774;2023-03-01T15:41:55;6.40;58.10
12926;DHT22;6529;50.566;9.774;2023-03-01T15:46:50;6.20;60.00
12926;DHT22;6529;50.566;9.774;2023-03-01T15:51:57;5.90;61.90
12926;DHT22;6529;50.566;9.774;2023-03-01T15:54:25;5.90;60.60
12926;DHT22;6529;50.566;9.774;2023-03-01T15:56:51;5.80;62.80
12926;DHT22;6529;50.566;9.774;2023-03-01T15:59:17;5.90;65.70
12926;DHT22;6529;50.566;9.774;2023-03-01T16:01:44;5.80;62.10
12926;DHT22;6529;50.566;9.774;2023-03-01T16:04:14;5.90;64.00
12926;DHT22;6529;50.566;9.774;2023-03-01T16:06:46;5.70;62.60
12926;DHT22;6529;50.566;9.774;2023-03-01T16:09:12;5.60;64.50
12926;DHT22;6529;50.566;9.774;2023-03-01T16:11:38;5.70;66.80
12926;DHT22;6529;50.566;9.774;2023-03-01T16:14:05;5.70;65.50
12926;DHT22;6529;50.566;9.774;2023-03-01T16:16:30;5.80;68.10
12926;DHT22;6529;50.566;9.774;2023-03-01T16:18:56;5.80;65.90
12926;DHT22;6529;50.566;9.774;2023-03-01T16:21:23;5.80;64.20
12926;DHT22;6529;50.566;9.774;2023-03-01T16:23:50;5.90;62.90
12926;DHT22;6529;50.566;9.774;2023-03-01T16:26:16;5.90;64.50
12926;DHT22;6529;50.566;9.774;2023-03-01T16:28:43;5.80;60.50
12926;DHT22;6529;50.566;9.774;2023-03-01T16:31:10;5.60;64.80
12926;DHT22;6529;50.566;9.774;2023-03-01T16:33:37;5.50;66.20
12926;DHT22;6529;50.566;9.774;2023-03-01T16:36:11;5.40;67.80
12926;DHT22;6529;50.566;9.774;2023-03-01T16:38:37;5.20;69.00
12926;DHT22;6529;50.566;9.774;2023-03-01T16:41:04;5.10;72.30
12926;DHT22;6529;50.566;9.774;2023-03-01T16:43:30;5.00;73.80
12926;DHT22;6529;50.566;9.774;2023-03-01T16:45:56;4.70;77.20
12926;DHT22;6529;50.566;9.774;2023-03-01T16:48:22;4.50;78.70
12926;DHT22;6529;50.566;9.774;2023-03-01T16:50:58;4.30;82.20
12926;DHT22;6529;50.566;9.774;2023-03-01T16:53:25;4.30;85.80
12926;DHT22;6529;50.566;9.774;2023-03-01T16:55:55;4.10;89.40
12926;DHT22;6529;50.566;9.774;2023-03-01T16:58:21;4.10;91.00
12926;DHT22;6529;50.566;9.774;2023-03-01T17:00:52;4.00;92.50
12926;DHT22;6529;50.566;9.774;2023-03-01T17:03:20;3.90;93.60
12926;DHT22;6529;50.566;9.774;2023-03-01T17:05:45;3.90;94.90
12926;DHT22;6529;50.566;9.774;2023-03-01T17:08:11;3.80;95.50
12926;DHT22;6529;50.566;9.774;2023-03-01T17:10:36;3.70;96.60
12926;DHT22;6529;50.566;9.774;2023-03-01T17:13:02;3.70;97.40
12926;DHT22;6529;50.566;9.774;2023-03-01T17:15:28;3.70;97.80
12926;DHT22;6529;50.566;9.774;2023-03-01T17:17:54;3.70;97.80
12926;DHT22;6529;50.566;9.774;2023-03-01T17:20:20;3.70;98.90
12926;DHT22;6529;50.566;9.774;2023-03-01T17:22:45;3.50;99.40
12926;DHT22;6529;50.566;9.774;2023-03-01T17:25:11;3.50;99.90
12926;DHT22;6529;50.566;9.774;2023-03-01T17:27:37;3.40;99.90
12926;DHT22;6529;50.566;9.774;2023-03-01T17:30:04;3.40;99.90
12926;DHT22;6529;50.566;9.774;2023-03-01T17:32:30;3.20;99.90
12926;DHT22;6529;50.566;9.774;2023-03-01T17:34:56;3.20;99.90
12926;DHT22;6529;50.566;9.774;2023-03-01T17:37:21;3.10;99.90
12926;DHT22;6529;50.566;9.774;2023-03-01T17:39:47;3.10;99.90
12926;DHT22;6529;50.566;9.774;2023-03-01T17:42:12;3.10;99.90
12926;DHT22;6529;50.566;9.774;2023-03-01T17:44:38;3.10;99.90
12926;DHT22;6529;50.566;9.774;2023-03-01T17:47:04;3.00;99.90
12926;DHT22;6529;50.566;9.774;2023-03-01T17:49:30;2.80;99.90
12926;DHT22;6529;50.566;9.774;2023-03-01T17:51:56;2.60;99.90
12926;DHT22;6529;50.566;9.774;2023-03-01T17:54:22;2.70;99.90
12926;DHT22;6529;50.566;9.774;2023-03-01T17:56:48;2.60;99.90
12926;DHT22;6529;50.566;9.774;2023-03-01T17:59:13;2.60;99.90
12926;DHT22;6529;50.566;9.774;2023-03-01T18:01:41;2.60;99.90
12926;DHT22;6529;50.566;9.774;2023-03-01T18:04:07;2.40;99.90
12926;DHT22;6529;50.566;9.774;2023-03-01T18:06:35;2.40;99.90
12926;DHT22;6529;50.566;9.774;2023-03-01T18:09:00;2.40;99.90
12926;DHT22;6529;50.566;9.774;2023-03-01T18:11:26;2.30;99.90
12926;DHT22;6529;50.566;9.774;2023-03-01T18:13:53;2.30;99.90
12926;DHT22;6529;50.566;9.774;2023-03-01T18:16:20;2.40;99.90
12926;DHT22;6529;50.566;9.774;2023-03-01T18:18:46;2.40;99.90
12926;DHT22;6529;50.566;9.774;2023-03-01T18:21:13;2.40;99.90
12926;DHT22;6529;50.566;9.774;2023-03-01T18:23:40;2.30;99.90
12926;DHT22;6529;50.566;9.774;2023-03-01T18:26:08;2.30;99.90
12926;DHT22;6529;50.566;9.774;2023-03-01T18:28:34;2.40;99.90
12926;DHT22;6529;50.566;9.774;2023-03-01T18:31:02;2.40;99.90
12926;DHT22;6529;50.566;9.774;2023-03-01T18:33:29;2.50;99.90